PWSweather.com
Personal Weather Stations
Station Observations

YeovilGB

Lat: 50.949, Lon: -2.627

Elevation: 70

Station Type: Vantage Pro

http://www.yeovil-weather.me.uk/

High Low Average
Temperature 45.1°F7.3°F 35.9°F2.2°F 41.1°F5.1°F
Dew Point 42.3°F5.7°F 33.5°F0.8°F 37.7°F3.2°F
Winds 15.0 mph SW24.1 mph SW Calm Calm 5.5 mph 8.9 mph
Wind Gusts 24.2 mph38.9 mph -- 11.1 mph17.9 mph
Humidity 92% 78% 88%
Pressure 29.55 in1000.70 in 29.41 in995.90 in -
Precipitation 0.28 in7.10 in - -
Hour Temp Dew Point Humidity Winds Wind Gusts Pressure Precip Precip Rate Daily Precip Total
12:00 AM 44.7°F7.1°C 42.2°F5.7°C 91% Calm Calm -- 29.43 in996.6 mb - 0.00 in0.0 mm 0.00 in0.0 mm
12:10 AM 44.7°F7.1°C 42.3°F5.7°C 91% 2.3 mph SW3.7 kmh SW 5.8 mph9.3 kmh 29.43 in996.6 mb - 0.00 in0.0 mm 0.00 in0.0 mm
12:20 AM 44.8°F7.1°C 42.3°F5.7°C 91% 1.2 mph SW1.9 kmh SW 9.2 mph14.8 kmh 29.43 in996.6 mb - 0.00 in0.0 mm 0.00 in0.0 mm
12:30 AM 44.8°F7.1°C 42.0°F5.6°C 90% 3.5 mph SW5.6 kmh SW 13.8 mph22.2 kmh 29.43 in996.6 mb - 0.00 in0.0 mm 0.00 in0.0 mm
12:40 AM 45.0°F7.2°C 42.2°F5.7°C 90% 2.3 mph SW3.7 kmh SW 11.5 mph18.5 kmh 29.43 in996.6 mb - 0.00 in0.0 mm 0.00 in0.0 mm
12:50 AM 45.1°F7.3°C 42.3°F5.7°C 90% 6.9 mph SW11.1 kmh SW 11.5 mph18.5 kmh 29.43 in996.6 mb - 0.00 in0.0 mm 0.00 in0.0 mm
01:00 AM 45.0°F7.2°C 42.0°F5.6°C 89% 2.3 mph WSW3.7 kmh WSW 9.2 mph14.8 kmh 29.42 in996.3 mb - 0.00 in0.0 mm 0.00 in0.0 mm
01:10 AM 44.9°F7.2°C 41.9°F5.5°C 89% 4.6 mph SW7.4 kmh SW 11.5 mph18.5 kmh 29.42 in996.3 mb - 0.00 in0.0 mm 0.00 in0.0 mm
01:20 AM 44.8°F7.1°C 41.8°F5.4°C 89% 4.6 mph SW7.4 kmh SW 8.1 mph13.0 kmh 29.41 in995.9 mb - 0.00 in0.0 mm 0.00 in0.0 mm
01:30 AM 44.7°F7.1°C 41.7°F5.4°C 89% Calm Calm -- 29.41 in995.9 mb - 0.00 in0.0 mm 0.00 in0.0 mm
01:40 AM 44.6°F7.0°C 41.8°F5.4°C 90% 2.3 mph SW3.7 kmh SW 8.1 mph13.0 kmh 29.41 in995.9 mb - 0.00 in0.0 mm 0.00 in0.0 mm
01:50 AM 44.6°F7.0°C 42.1°F5.6°C 91% 11.5 mph SW18.5 kmh SW 18.4 mph29.6 kmh 29.41 in995.9 mb - 0.00 in0.0 mm 0.00 in0.0 mm
02:00 AM 44.5°F6.9°C 41.7°F5.4°C 90% 10.4 mph SW16.7 kmh SW 18.4 mph29.6 kmh 29.41 in995.9 mb - 0.02 in0.5 mm 0.02 in0.5 mm
02:10 AM 44.2°F6.8°C 41.5°F5.3°C 90% 10.4 mph WSW16.7 kmh WSW 12.7 mph20.4 kmh 29.41 in995.9 mb - 0.02 in0.5 mm 0.03 in0.8 mm
02:20 AM 44.1°F6.7°C 41.6°F5.3°C 91% 9.2 mph SW14.8 kmh SW 16.1 mph25.9 kmh 29.41 in995.9 mb - 0.00 in0.0 mm 0.03 in0.8 mm
02:30 AM 44.1°F6.7°C 41.6°F5.3°C 91% 6.9 mph W11.1 kmh W 23.0 mph37.0 kmh 29.44 in997.0 mb - 0.02 in0.5 mm 0.05 in1.3 mm
02:40 AM 43.0°F6.1°C 40.3°F4.6°C 90% 4.6 mph WSW7.4 kmh WSW 9.2 mph14.8 kmh 29.43 in996.6 mb - 0.04 in1.0 mm 0.08 in2.0 mm
02:50 AM 42.6°F5.9°C 40.4°F4.7°C 92% 8.1 mph WSW13.0 kmh WSW 11.5 mph18.5 kmh 29.42 in996.3 mb - 0.00 in0.0 mm 0.08 in2.0 mm
03:00 AM 42.9°F6.1°C 40.4°F4.7°C 91% 6.9 mph SW11.1 kmh SW 9.2 mph14.8 kmh 29.42 in996.3 mb - 0.00 in0.0 mm 0.08 in2.0 mm
03:10 AM 43.0°F6.1°C 40.3°F4.6°C 90% 8.1 mph SW13.0 kmh SW 13.8 mph22.2 kmh 29.43 in996.6 mb - 0.00 in0.0 mm 0.08 in2.0 mm
03:20 AM 43.0°F6.1°C 40.0°F4.4°C 89% 6.9 mph SW11.1 kmh SW 12.7 mph20.4 kmh 29.43 in996.6 mb - 0.00 in0.0 mm 0.08 in2.0 mm
03:30 AM 43.1°F6.2°C 39.5°F4.2°C 87% 4.6 mph SW7.4 kmh SW 18.4 mph29.6 kmh 29.43 in996.6 mb - 0.00 in0.0 mm 0.08 in2.0 mm
03:40 AM 43.2°F6.2°C 39.3°F4.1°C 86% 8.1 mph WSW13.0 kmh WSW 18.4 mph29.6 kmh 29.44 in997.0 mb - 0.00 in0.0 mm 0.08 in2.0 mm
03:50 AM 43.2°F6.2°C 39.0°F3.9°C 85% 10.4 mph SW16.7 kmh SW 15.0 mph24.1 kmh 29.43 in996.6 mb - 0.00 in0.0 mm 0.08 in2.0 mm
04:00 AM 43.6°F6.4°C 39.1°F3.9°C 84% 4.6 mph SW7.4 kmh SW 12.7 mph20.4 kmh 29.43 in996.6 mb - 0.00 in0.0 mm 0.08 in2.0 mm
04:10 AM 43.5°F6.4°C 39.0°F3.9°C 84% 5.8 mph SW9.3 kmh SW 11.5 mph18.5 kmh 29.43 in996.6 mb - 0.00 in0.0 mm 0.08 in2.0 mm
04:20 AM 43.4°F6.3°C 38.9°F3.8°C 84% 3.5 mph WSW5.6 kmh WSW 11.5 mph18.5 kmh 29.43 in996.6 mb - 0.00 in0.0 mm 0.08 in2.0 mm
04:30 AM 43.3°F6.3°C 39.1°F3.9°C 85% 6.9 mph SW11.1 kmh SW 10.4 mph16.7 kmh 29.44 in997.0 mb - 0.00 in0.0 mm 0.08 in2.0 mm
04:40 AM 43.2°F6.2°C 39.3°F4.1°C 86% 4.6 mph SW7.4 kmh SW 10.4 mph16.7 kmh 29.44 in997.0 mb - 0.00 in0.0 mm 0.08 in2.0 mm
04:50 AM 43.1°F6.2°C 39.2°F4.0°C 86% 5.8 mph SW9.3 kmh SW 9.2 mph14.8 kmh 29.43 in996.6 mb - 0.00 in0.0 mm 0.08 in2.0 mm
05:00 AM 43.0°F6.1°C 38.8°F3.8°C 85% 5.8 mph SW9.3 kmh SW 4.6 mph7.4 kmh 29.44 in997.0 mb - 0.00 in0.0 mm 0.08 in2.0 mm
05:10 AM 43.1°F6.2°C 38.6°F3.7°C 84% 5.8 mph SW9.3 kmh SW 11.5 mph18.5 kmh 29.44 in997.0 mb - 0.00 in0.0 mm 0.08 in2.0 mm
05:20 AM 43.0°F6.1°C 38.5°F3.6°C 84% 4.6 mph SW7.4 kmh SW 10.4 mph16.7 kmh 29.45 in997.3 mb - 0.00 in0.0 mm 0.08 in2.0 mm
05:30 AM 43.1°F6.2°C 38.6°F3.7°C 84% 3.5 mph W5.6 kmh W 13.8 mph22.2 kmh 29.44 in997.0 mb - 0.00 in0.0 mm 0.08 in2.0 mm
05:40 AM 43.3°F6.3°C 38.5°F3.6°C 83% 3.5 mph SW5.6 kmh SW 6.9 mph11.1 kmh 29.44 in997.0 mb - 0.00 in0.0 mm 0.08 in2.0 mm
05:50 AM 43.4°F6.3°C 38.3°F3.5°C 82% 6.9 mph WSW11.1 kmh WSW 12.7 mph20.4 kmh 29.44 in997.0 mb - 0.00 in0.0 mm 0.08 in2.0 mm
06:00 AM 43.2°F6.2°C 38.4°F3.6°C 83% 8.1 mph WSW13.0 kmh WSW 16.1 mph25.9 kmh 29.45 in997.3 mb - 0.00 in0.0 mm 0.08 in2.0 mm
06:10 AM 43.0°F6.1°C 38.5°F3.6°C 84% 5.8 mph WSW9.3 kmh WSW 10.4 mph16.7 kmh 29.46 in997.6 mb - 0.00 in0.0 mm 0.08 in2.0 mm
06:20 AM 42.3°F5.7°C 38.7°F3.7°C 87% 11.5 mph WSW18.5 kmh WSW 19.6 mph31.5 kmh 29.48 in998.3 mb - 0.02 in0.5 mm 0.10 in2.5 mm
06:30 AM 41.7°F5.4°C 38.7°F3.7°C 89% 15.0 mph SW24.1 kmh SW 24.2 mph38.9 kmh 29.48 in998.3 mb - 0.01 in0.3 mm 0.11 in2.8 mm
06:40 AM 41.2°F5.1°C 38.0°F3.3°C 88% 3.5 mph WSW5.6 kmh WSW 3.5 mph5.6 kmh 29.48 in998.3 mb - 0.01 in0.3 mm 0.12 in3.0 mm
06:50 AM 40.6°F4.8°C 37.6°F3.1°C 89% 3.5 mph SW5.6 kmh SW 10.4 mph16.7 kmh 29.48 in998.3 mb - 0.00 in0.0 mm 0.12 in3.0 mm
07:00 AM 40.3°F4.6°C 37.3°F2.9°C 89% 5.8 mph SW9.3 kmh SW 12.7 mph20.4 kmh 29.48 in998.3 mb - 0.00 in0.0 mm 0.12 in3.0 mm
07:10 AM 40.3°F4.6°C 37.0°F2.8°C 88% 6.9 mph SW11.1 kmh SW 9.2 mph14.8 kmh 29.48 in998.3 mb - 0.00 in0.0 mm 0.12 in3.0 mm
07:20 AM 40.3°F4.6°C 37.0°F2.8°C 88% 3.5 mph SW5.6 kmh SW 11.5 mph18.5 kmh 29.49 in998.6 mb - 0.00 in0.0 mm 0.12 in3.0 mm
07:30 AM 40.2°F4.6°C 36.6°F2.6°C 87% 2.3 mph SW3.7 kmh SW 1.2 mph1.9 kmh 29.48 in998.3 mb - 0.00 in0.0 mm 0.12 in3.0 mm
07:40 AM 40.3°F4.6°C 37.0°F2.8°C 88% 4.6 mph SW7.4 kmh SW 6.9 mph11.1 kmh 29.49 in998.6 mb - 0.00 in0.0 mm 0.12 in3.0 mm
07:50 AM 40.6°F4.8°C 37.3°F2.9°C 88% 2.3 mph WSW3.7 kmh WSW 9.2 mph14.8 kmh 29.50 in999.0 mb - 0.01 in0.3 mm 0.13 in3.3 mm
08:00 AM 40.7°F4.8°C 37.4°F3.0°C 88% Calm Calm -- 29.50 in999.0 mb - 0.00 in0.0 mm 0.13 in3.3 mm
08:10 AM 40.6°F4.8°C 37.3°F2.9°C 88% 5.8 mph SW9.3 kmh SW 8.1 mph13.0 kmh 29.50 in999.0 mb - 0.00 in0.0 mm 0.13 in3.3 mm
08:20 AM 40.5°F4.7°C 37.2°F2.9°C 88% Calm Calm 2.3 mph3.7 kmh 29.50 in999.0 mb - 0.00 in0.0 mm 0.13 in3.3 mm
08:30 AM 40.2°F4.6°C 37.2°F2.9°C 89% Calm Calm -- 29.50 in999.0 mb - 0.00 in0.0 mm 0.13 in3.3 mm
08:40 AM 40.0°F4.4°C 37.0°F2.8°C 89% Calm Calm -- 29.50 in999.0 mb - 0.00 in0.0 mm 0.13 in3.3 mm
08:50 AM 40.2°F4.6°C 37.5°F3.1°C 90% Calm Calm 8.1 mph13.0 kmh 29.51 in999.3 mb - 0.00 in0.0 mm 0.13 in3.3 mm
09:00 AM 40.4°F4.7°C 37.1°F2.8°C 88% 1.2 mph SSW1.9 kmh SSW 8.1 mph13.0 kmh 29.50 in999.0 mb - 0.00 in0.0 mm 0.13 in3.3 mm
09:10 AM 40.6°F4.8°C 37.0°F2.8°C 87% Calm Calm 6.9 mph11.1 kmh 29.50 in999.0 mb - 0.00 in0.0 mm 0.13 in3.3 mm
09:20 AM 40.8°F4.9°C 37.5°F3.1°C 88% 1.2 mph SW1.9 kmh SW 9.2 mph14.8 kmh 29.50 in999.0 mb - 0.00 in0.0 mm 0.13 in3.3 mm
09:30 AM 41.7°F5.4°C 38.1°F3.4°C 87% 2.3 mph SW3.7 kmh SW 8.1 mph13.0 kmh 29.51 in999.3 mb - 0.00 in0.0 mm 0.13 in3.3 mm
09:40 AM 42.6°F5.9°C 38.4°F3.6°C 85% 4.6 mph WSW7.4 kmh WSW 15.0 mph24.1 kmh 29.52 in999.7 mb - 0.00 in0.0 mm 0.13 in3.3 mm
09:50 AM 42.9°F6.1°C 38.1°F3.4°C 83% 5.8 mph SW9.3 kmh SW 9.2 mph14.8 kmh 29.52 in999.7 mb - 0.00 in0.0 mm 0.13 in3.3 mm
10:00 AM 42.6°F5.9°C 38.1°F3.4°C 84% 3.5 mph WNW5.6 kmh WNW 8.1 mph13.0 kmh 29.54 in1000.3 mb - 0.00 in0.0 mm 0.13 in3.3 mm
10:10 AM 41.8°F5.4°C 37.6°F3.1°C 85% 5.8 mph WSW9.3 kmh WSW 11.5 mph18.5 kmh 29.53 in1000.0 mb - 0.00 in0.0 mm 0.13 in3.3 mm
10:20 AM 41.4°F5.2°C 37.5°F3.1°C 86% 4.6 mph WSW7.4 kmh WSW 9.2 mph14.8 kmh 29.53 in1000.0 mb - 0.00 in0.0 mm 0.13 in3.3 mm
10:30 AM 42.0°F5.6°C 38.4°F3.6°C 87% 4.6 mph SW7.4 kmh SW 8.1 mph13.0 kmh 29.53 in1000.0 mb - 0.00 in0.0 mm 0.13 in3.3 mm
10:40 AM 43.2°F6.2°C 39.3°F4.1°C 86% 9.2 mph SW14.8 kmh SW 19.6 mph31.5 kmh 29.54 in1000.3 mb - 0.00 in0.0 mm 0.13 in3.3 mm
10:50 AM 43.3°F6.3°C 38.5°F3.6°C 83% 3.5 mph WNW5.6 kmh WNW 10.4 mph16.7 kmh 29.55 in1000.7 mb - 0.00 in0.0 mm 0.13 in3.3 mm
11:00 AM 42.1°F5.6°C 37.6°F3.1°C 84% 4.6 mph NW7.4 kmh NW 11.5 mph18.5 kmh 29.55 in1000.7 mb - 0.00 in0.0 mm 0.13 in3.3 mm
11:10 AM 40.9°F4.9°C 37.4°F3.0°C 87% 5.8 mph WNW9.3 kmh WNW 11.5 mph18.5 kmh 29.55 in1000.7 mb - 0.01 in0.3 mm 0.13 in3.3 mm
11:20 AM 40.5°F4.7°C 37.5°F3.1°C 89% 6.9 mph WSW11.1 kmh WSW 9.2 mph14.8 kmh 29.54 in1000.3 mb - 0.00 in0.0 mm 0.13 in3.3 mm
11:30 AM 40.7°F4.8°C 38.0°F3.3°C 90% 3.5 mph SW5.6 kmh SW 9.2 mph14.8 kmh 29.55 in1000.7 mb - 0.00 in0.0 mm 0.13 in3.3 mm
11:40 AM 41.3°F5.2°C 38.6°F3.7°C 90% 2.3 mph WSW3.7 kmh WSW 6.9 mph11.1 kmh 29.55 in1000.7 mb - 0.00 in0.0 mm 0.13 in3.3 mm
11:50 AM 42.2°F5.7°C 39.5°F4.2°C 90% 3.5 mph SW5.6 kmh SW 11.5 mph18.5 kmh 29.54 in1000.3 mb - 0.00 in0.0 mm 0.13 in3.3 mm
12:00 PM 43.1°F6.2°C 39.8°F4.3°C 88% 4.6 mph SW7.4 kmh SW 10.4 mph16.7 kmh 29.53 in1000.0 mb - 0.00 in0.0 mm 0.13 in3.3 mm
12:10 PM 43.4°F6.3°C 39.2°F4.0°C 85% 4.6 mph SW7.4 kmh SW 11.5 mph18.5 kmh 29.53 in1000.0 mb - 0.00 in0.0 mm 0.13 in3.3 mm
12:20 PM 43.7°F6.5°C 39.2°F4.0°C 84% 4.6 mph SSW7.4 kmh SSW 10.4 mph16.7 kmh 29.52 in999.7 mb - 0.00 in0.0 mm 0.13 in3.3 mm
12:30 PM 44.2°F6.8°C 40.0°F4.4°C 85% 4.6 mph SW7.4 kmh SW 9.2 mph14.8 kmh 29.52 in999.7 mb - 0.00 in0.0 mm 0.13 in3.3 mm
12:40 PM 44.4°F6.9°C 39.2°F4.0°C 82% 3.5 mph W5.6 kmh W 6.9 mph11.1 kmh 29.51 in999.3 mb - 0.00 in0.0 mm 0.13 in3.3 mm
12:50 PM 44.0°F6.7°C 38.5°F3.6°C 81% 9.2 mph SW14.8 kmh SW 11.5 mph18.5 kmh 29.51 in999.3 mb - 0.00 in0.0 mm 0.13 in3.3 mm
01:00 PM 44.1°F6.7°C 38.3°F3.5°C 80% 4.6 mph SW7.4 kmh SW 10.4 mph16.7 kmh 29.51 in999.3 mb - 0.00 in0.0 mm 0.13 in3.3 mm
01:10 PM 44.1°F6.7°C 38.0°F3.3°C 79% 6.9 mph SW11.1 kmh SW 10.4 mph16.7 kmh 29.50 in999.0 mb - 0.00 in0.0 mm 0.13 in3.3 mm
01:20 PM 44.0°F6.7°C 37.5°F3.1°C 78% 6.9 mph WSW11.1 kmh WSW 11.5 mph18.5 kmh 29.51 in999.3 mb - 0.00 in0.0 mm 0.13 in3.3 mm
01:30 PM 43.4°F6.3°C 37.0°F2.8°C 78% 10.4 mph SW16.7 kmh SW 13.8 mph22.2 kmh 29.50 in999.0 mb - 0.00 in0.0 mm 0.13 in3.3 mm
01:40 PM 42.4°F5.8°C 36.9°F2.7°C 81% 8.1 mph SW13.0 kmh SW 12.7 mph20.4 kmh 29.50 in999.0 mb - 0.00 in0.0 mm 0.13 in3.3 mm
01:50 PM 41.9°F5.5°C 37.1°F2.8°C 83% 5.8 mph SW9.3 kmh SW 13.8 mph22.2 kmh 29.50 in999.0 mb - 0.00 in0.0 mm 0.13 in3.3 mm
02:00 PM 41.8°F5.4°C 37.6°F3.1°C 85% 9.2 mph SW14.8 kmh SW 11.5 mph18.5 kmh 29.50 in999.0 mb - 0.00 in0.0 mm 0.13 in3.3 mm
02:10 PM 41.8°F5.4°C 37.9°F3.3°C 86% 4.6 mph SW7.4 kmh SW 11.5 mph18.5 kmh 29.50 in999.0 mb - 0.00 in0.0 mm 0.13 in3.3 mm
02:20 PM 41.6°F5.3°C 38.0°F3.3°C 87% 5.8 mph SW9.3 kmh SW 10.4 mph16.7 kmh 29.49 in998.6 mb - 0.00 in0.0 mm 0.13 in3.3 mm
02:30 PM 41.6°F5.3°C 38.0°F3.3°C 87% 5.8 mph SW9.3 kmh SW 6.9 mph11.1 kmh 29.49 in998.6 mb - 0.00 in0.0 mm 0.13 in3.3 mm
02:40 PM 41.6°F5.3°C 38.3°F3.5°C 88% 3.5 mph SW5.6 kmh SW 11.5 mph18.5 kmh 29.49 in998.6 mb - 0.00 in0.0 mm 0.13 in3.3 mm
02:50 PM 41.7°F5.4°C 38.4°F3.6°C 88% 5.8 mph SW9.3 kmh SW 12.7 mph20.4 kmh 29.47 in998.0 mb - 0.00 in0.0 mm 0.13 in3.3 mm
03:00 PM 42.1°F5.6°C 38.5°F3.6°C 87% 2.3 mph SW3.7 kmh SW 9.2 mph14.8 kmh 29.47 in998.0 mb - 0.00 in0.0 mm 0.13 in3.3 mm
03:10 PM 42.5°F5.8°C 38.3°F3.5°C 85% 1.2 mph SW1.9 kmh SW 12.7 mph20.4 kmh 29.47 in998.0 mb - 0.00 in0.0 mm 0.13 in3.3 mm
03:20 PM 42.4°F5.8°C 37.9°F3.3°C 84% 4.6 mph SSW7.4 kmh SSW 12.7 mph20.4 kmh 29.46 in997.6 mb - 0.00 in0.0 mm 0.13 in3.3 mm
03:30 PM 42.2°F5.7°C 37.7°F3.2°C 84% 5.8 mph SW9.3 kmh SW 10.4 mph16.7 kmh 29.47 in998.0 mb - 0.00 in0.0 mm 0.13 in3.3 mm
03:40 PM 41.6°F5.3°C 37.7°F3.2°C 86% 10.4 mph SW16.7 kmh SW 23.0 mph37.0 kmh 29.46 in997.6 mb - 0.01 in0.3 mm 0.14 in3.6 mm
03:50 PM 41.0°F5.0°C 37.4°F3.0°C 87% 13.8 mph SW22.2 kmh SW 18.4 mph29.6 kmh 29.46 in997.6 mb - 0.00 in0.0 mm 0.14 in3.6 mm
04:00 PM 40.4°F4.7°C 37.4°F3.0°C 89% 9.2 mph SW14.8 kmh SW 16.1 mph25.9 kmh 29.46 in997.6 mb - 0.01 in0.3 mm 0.15 in3.8 mm
04:10 PM 40.2°F4.6°C 37.5°F3.1°C 90% 5.8 mph SSW9.3 kmh SSW 12.7 mph20.4 kmh 29.46 in997.6 mb - 0.00 in0.0 mm 0.15 in3.8 mm
04:20 PM 40.2°F4.6°C 37.5°F3.1°C 90% 9.2 mph SW14.8 kmh SW 12.7 mph20.4 kmh 29.46 in997.6 mb - 0.00 in0.0 mm 0.15 in3.8 mm
04:30 PM 40.2°F4.6°C 37.2°F2.9°C 89% 5.8 mph SW9.3 kmh SW 15.0 mph24.1 kmh 29.45 in997.3 mb - 0.00 in0.0 mm 0.15 in3.8 mm
04:40 PM 39.9°F4.4°C 36.9°F2.7°C 89% 9.2 mph SW14.8 kmh SW 11.5 mph18.5 kmh 29.45 in997.3 mb - 0.00 in0.0 mm 0.15 in3.8 mm
04:50 PM 39.7°F4.3°C 37.0°F2.8°C 90% 9.2 mph SW14.8 kmh SW 18.4 mph29.6 kmh 29.44 in997.0 mb - 0.00 in0.0 mm 0.15 in3.8 mm
05:00 PM 39.6°F4.2°C 36.9°F2.7°C 90% 8.1 mph SSW13.0 kmh SSW 15.0 mph24.1 kmh 29.44 in997.0 mb - 0.00 in0.0 mm 0.15 in3.8 mm
05:10 PM 39.6°F4.2°C 36.9°F2.7°C 90% 8.1 mph SW13.0 kmh SW 11.5 mph18.5 kmh 29.44 in997.0 mb - 0.00 in0.0 mm 0.15 in3.8 mm
05:20 PM 39.7°F4.3°C 37.0°F2.8°C 90% 10.4 mph SW16.7 kmh SW 13.8 mph22.2 kmh 29.44 in997.0 mb - 0.00 in0.0 mm 0.15 in3.8 mm
05:30 PM 39.7°F4.3°C 37.0°F2.8°C 90% 8.1 mph SW13.0 kmh SW 11.5 mph18.5 kmh 29.44 in997.0 mb - 0.00 in0.0 mm 0.15 in3.8 mm
05:40 PM 39.9°F4.4°C 37.2°F2.9°C 90% 12.7 mph SW20.4 kmh SW 19.6 mph31.5 kmh 29.44 in997.0 mb - 0.01 in0.3 mm 0.16 in4.1 mm
05:50 PM 39.9°F4.4°C 37.2°F2.9°C 90% 10.4 mph SW16.7 kmh SW 18.4 mph29.6 kmh 29.45 in997.3 mb - 0.00 in0.0 mm 0.16 in4.1 mm
06:00 PM 39.8°F4.3°C 37.1°F2.8°C 90% 2.3 mph SW3.7 kmh SW 8.1 mph13.0 kmh 29.45 in997.3 mb - 0.00 in0.0 mm 0.16 in4.1 mm
06:10 PM 39.7°F4.3°C 37.0°F2.8°C 90% 10.4 mph SW16.7 kmh SW 20.7 mph33.3 kmh 29.46 in997.6 mb - 0.01 in0.3 mm 0.17 in4.3 mm
06:20 PM 39.5°F4.2°C 36.8°F2.7°C 90% 5.8 mph SW9.3 kmh SW 9.2 mph14.8 kmh 29.45 in997.3 mb - 0.00 in0.0 mm 0.17 in4.3 mm
06:30 PM 39.3°F4.1°C 36.6°F2.6°C 90% 5.8 mph SW9.3 kmh SW 12.7 mph20.4 kmh 29.45 in997.3 mb - 0.00 in0.0 mm 0.17 in4.3 mm
06:40 PM 39.0°F3.9°C 36.3°F2.4°C 90% 6.9 mph SW11.1 kmh SW 8.1 mph13.0 kmh 29.46 in997.6 mb - 0.00 in0.0 mm 0.17 in4.3 mm
06:50 PM 38.8°F3.8°C 36.1°F2.3°C 90% 3.5 mph SW5.6 kmh SW 11.5 mph18.5 kmh 29.46 in997.6 mb - 0.00 in0.0 mm 0.17 in4.3 mm
07:00 PM 38.6°F3.7°C 35.4°F1.9°C 88% 5.8 mph SW9.3 kmh SW 11.5 mph18.5 kmh 29.45 in997.3 mb - 0.00 in0.0 mm 0.17 in4.3 mm
07:10 PM 38.5°F3.6°C 35.0°F1.7°C 87% 8.1 mph SW13.0 kmh SW 11.5 mph18.5 kmh 29.45 in997.3 mb - 0.00 in0.0 mm 0.17 in4.3 mm
07:20 PM 38.4°F3.6°C 34.9°F1.6°C 87% 4.6 mph SW7.4 kmh SW 8.1 mph13.0 kmh 29.45 in997.3 mb - 0.00 in0.0 mm 0.17 in4.3 mm
07:30 PM 38.3°F3.5°C 34.8°F1.6°C 87% 4.6 mph SW7.4 kmh SW 6.9 mph11.1 kmh 29.46 in997.6 mb - 0.00 in0.0 mm 0.17 in4.3 mm
07:50 PM 38.4°F3.6°C 34.9°F1.6°C 87% Calm Calm 3.5 mph5.6 kmh 29.46 in997.6 mb - 0.00 in0.0 mm 0.17 in4.3 mm
08:00 PM 37.7°F3.2°C 34.4°F1.3°C 88% 6.9 mph WSW11.1 kmh WSW 11.5 mph18.5 kmh 29.48 in998.3 mb - 0.02 in0.5 mm 0.18 in4.6 mm
08:10 PM 37.2°F2.9°C 34.5°F1.4°C 90% 5.8 mph SW9.3 kmh SW 8.1 mph13.0 kmh 29.47 in998.0 mb - 0.01 in0.3 mm 0.19 in4.8 mm
08:20 PM 37.3°F2.9°C 34.9°F1.6°C 91% 1.2 mph SW1.9 kmh SW 4.6 mph7.4 kmh 29.47 in998.0 mb - 0.00 in0.0 mm 0.19 in4.8 mm
08:30 PM 37.3°F2.9°C 35.0°F1.7°C 91% 1.2 mph SSW1.9 kmh SSW 3.5 mph5.6 kmh 29.47 in998.0 mb - 0.00 in0.0 mm 0.19 in4.8 mm
08:40 PM 37.2°F2.9°C 34.8°F1.6°C 91% 4.6 mph SW7.4 kmh SW 9.2 mph14.8 kmh 29.46 in997.6 mb - 0.00 in0.0 mm 0.19 in4.8 mm
08:50 PM 36.9°F2.7°C 34.5°F1.4°C 91% 2.3 mph SW3.7 kmh SW 10.4 mph16.7 kmh 29.46 in997.6 mb - 0.00 in0.0 mm 0.19 in4.8 mm
09:00 PM 37.1°F2.8°C 34.7°F1.5°C 91% 3.5 mph NNW5.6 kmh NNW 6.9 mph11.1 kmh 29.48 in998.3 mb - 0.00 in0.0 mm 0.19 in4.8 mm
09:10 PM 37.0°F2.8°C 34.4°F1.3°C 90% 3.5 mph WSW5.6 kmh WSW 11.5 mph18.5 kmh 29.49 in998.6 mb - 0.01 in0.3 mm 0.20 in5.1 mm
09:20 PM 36.4°F2.4°C 34.1°F1.2°C 91% 9.2 mph WSW14.8 kmh WSW 19.6 mph31.5 kmh 29.49 in998.6 mb - 0.01 in0.3 mm 0.20 in5.1 mm
09:30 PM 36.4°F2.4°C 34.0°F1.1°C 91% 4.6 mph SW7.4 kmh SW 11.5 mph18.5 kmh 29.48 in998.3 mb - 0.00 in0.0 mm 0.20 in5.1 mm
09:40 PM 36.2°F2.3°C 33.8°F1.0°C 91% 10.4 mph SW16.7 kmh SW 18.4 mph29.6 kmh 29.49 in998.6 mb - 0.01 in0.3 mm 0.21 in5.3 mm
09:50 PM 36.3°F2.4°C 34.2°F1.2°C 92% 6.9 mph SW11.1 kmh SW 10.4 mph16.7 kmh 29.50 in999.0 mb - 0.00 in0.0 mm 0.21 in5.3 mm
10:00 PM 36.2°F2.3°C 33.8°F1.0°C 91% 5.8 mph SW9.3 kmh SW 8.1 mph13.0 kmh 29.50 in999.0 mb - 0.00 in0.0 mm 0.21 in5.3 mm
10:10 PM 36.3°F2.4°C 33.9°F1.1°C 91% 8.1 mph SW13.0 kmh SW 11.5 mph18.5 kmh 29.50 in999.0 mb - 0.00 in0.0 mm 0.21 in5.3 mm
10:20 PM 36.6°F2.6°C 33.9°F1.1°C 90% 11.5 mph SW18.5 kmh SW 16.1 mph25.9 kmh 29.51 in999.3 mb - 0.00 in0.0 mm 0.21 in5.3 mm
10:30 PM 36.5°F2.5°C 34.1°F1.2°C 91% 3.5 mph SW5.6 kmh SW 12.7 mph20.4 kmh 29.51 in999.3 mb - 0.00 in0.0 mm 0.21 in5.3 mm
10:40 PM 36.2°F2.3°C 33.5°F0.8°C 90% 9.2 mph SW14.8 kmh SW 13.8 mph22.2 kmh 29.51 in999.3 mb - 0.01 in0.3 mm 0.21 in5.3 mm
10:50 PM 35.9°F2.2°C 33.5°F0.8°C 91% 5.8 mph SW9.3 kmh SW 5.8 mph9.3 kmh 29.51 in999.3 mb - 0.00 in0.0 mm 0.21 in5.3 mm
11:00 PM 36.0°F2.2°C 33.9°F1.1°C 92% 1.2 mph SW1.9 kmh SW 5.8 mph9.3 kmh 29.52 in999.7 mb - 0.00 in0.0 mm 0.21 in5.3 mm
11:10 PM 36.0°F2.2°C 33.7°F0.9°C 91% 3.5 mph SW5.6 kmh SW 5.8 mph9.3 kmh 29.52 in999.7 mb - 0.00 in0.0 mm 0.21 in5.3 mm
11:20 PM 36.1°F2.3°C 33.7°F0.9°C 91% 2.3 mph SW3.7 kmh SW 13.8 mph22.2 kmh 29.52 in999.7 mb - 0.00 in0.0 mm 0.21 in5.3 mm
11:30 PM 36.5°F2.5°C 34.1°F1.2°C 91% 8.1 mph SW13.0 kmh SW 16.1 mph25.9 kmh 29.53 in1000.0 mb - 0.00 in0.0 mm 0.21 in5.3 mm
11:40 PM 37.0°F2.8°C 33.8°F1.0°C 88% 4.6 mph WSW7.4 kmh WSW 12.7 mph20.4 kmh 29.53 in1000.0 mb - 0.01 in0.3 mm 0.22 in5.6 mm
11:50 PM 37.4°F3.0°C 33.9°F1.1°C 87% 2.3 mph SW3.7 kmh SW 15.0 mph24.1 kmh 29.53 in1000.0 mb - 0.00 in0.0 mm 0.22 in5.6 mm